sensor_id;sensor_type;location;lat;lon;timestamp;pressure;altitude;pressure_sealevel;temperature;humidity
36354;BME280;22383;51.114;13.666;2023-01-20T00:01:19;67083.88;;;-1.05;100.00
36354;BME280;22383;51.114;13.666;2023-01-20T00:03:46;67082.19;;;-1.06;100.00
36354;BME280;22383;51.114;13.666;2023-01-20T00:06:14;67076.22;;;-1.09;100.00
36354;BME280;22383;51.114;13.666;2023-01-20T00:08:41;67075.66;;;-1.10;100.00
36354;BME280;22383;51.114;13.666;2023-01-20T00:11:10;67075.31;;;-1.08;100.00
36354;BME280;22383;51.114;13.666;2023-01-20T00:13:38;67078.81;;;-1.09;100.00
36354;BME280;22383;51.114;13.666;2023-01-20T00:16:08;67081.81;;;-1.04;100.00
36354;BME280;22383;51.114;13.666;2023-01-20T00:18:36;67079.34;;;-1.09;100.00
36354;BME280;22383;51.114;13.666;2023-01-20T00:21:08;67077.13;;;-1.11;100.00
36354;BME280;22383;51.114;13.666;2023-01-20T00:23:36;67074.53;;;-1.11;100.00
36354;BME280;22383;51.114;13.666;2023-01-20T00:26:11;67071.72;;;-1.13;100.00
36354;BME280;22383;51.114;13.666;2023-01-20T00:28:38;67072.28;;;-1.13;100.00
36354;BME280;22383;51.114;13.666;2023-01-20T00:31:19;67074.31;;;-1.13;100.00
36354;BME280;22383;51.114;13.666;2023-01-20T00:33:49;67069.47;;;-1.16;100.00
36354;BME280;22383;51.114;13.666;2023-01-20T00:36:18;67065.19;;;-1.17;100.00
36354;BME280;22383;51.114;13.666;2023-01-20T00:38:46;67067.22;;;-1.18;100.00
36354;BME280;22383;51.114;13.666;2023-01-20T00:41:13;67072.41;;;-1.18;100.00
36354;BME280;22383;51.114;13.666;2023-01-20T00:43:41;67062.97;;;-1.19;100.00
36354;BME280;22383;51.114;13.666;2023-01-20T00:46:09;67067.56;;;-1.20;100.00
36354;BME280;22383;51.114;13.666;2023-01-20T00:48:36;67070.94;;;-1.17;100.00
36354;BME280;22383;51.114;13.666;2023-01-20T00:51:04;67068.72;;;-1.19;100.00
36354;BME280;22383;51.114;13.666;2023-01-20T00:53:32;67062.38;;;-1.20;100.00
36354;BME280;22383;51.114;13.666;2023-01-20T00:55:59;67064.97;;;-1.20;100.00
36354;BME280;22383;51.114;13.666;2023-01-20T00:58:27;67068.47;;;-1.21;100.00
36354;BME280;22383;51.114;13.666;2023-01-20T01:00:54;67067.03;;;-1.20;100.00
36354;BME280;22383;51.114;13.666;2023-01-20T01:03:22;67060.13;;;-1.22;100.00
36354;BME280;22383;51.114;13.666;2023-01-20T01:05:49;67063.66;;;-1.23;100.00
36354;BME280;22383;51.114;13.666;2023-01-20T01:08:17;67058.44;;;-1.23;100.00
36354;BME280;22383;51.114;13.666;2023-01-20T01:10:44;67058.44;;;-1.23;100.00
36354;BME280;22383;51.114;13.666;2023-01-20T01:13:11;67064.19;;;-1.23;100.00
36354;BME280;22383;51.114;13.666;2023-01-20T01:15:38;67061.59;;;-1.23;100.00
36354;BME280;22383;51.114;13.666;2023-01-20T01:18:05;67068.16;;;-1.19;100.00
36354;BME280;22383;51.114;13.666;2023-01-20T01:20:32;67063.88;;;-1.21;100.00
36354;BME280;22383;51.114;13.666;2023-01-20T01:22:59;67064.41;;;-1.20;100.00
36354;BME280;22383;51.114;13.666;2023-01-20T01:25:27;67017.16;;;-1.21;100.00
36354;BME280;22383;51.114;13.666;2023-01-20T01:27:54;67062.97;;;-1.19;100.00
36354;BME280;22383;51.114;13.666;2023-01-20T01:30:21;67066.09;;;-1.19;100.00
36354;BME280;22383;51.114;13.666;2023-01-20T01:32:51;67064.97;;;-1.20;100.00
36354;BME280;22383;51.114;13.666;2023-01-20T01:35:18;67068.16;;;-1.19;100.00
36354;BME280;22383;51.114;13.666;2023-01-20T01:37:45;67067.03;;;-1.20;100.00
36354;BME280;22383;51.114;13.666;2023-01-20T01:40:12;67066.09;;;-1.19;100.00
36354;BME280;22383;51.114;13.666;2023-01-20T01:42:42;67068.72;;;-1.19;100.00
36354;BME280;22383;51.114;13.666;2023-01-20T01:47:56;67067.78;;;-1.17;100.00
36354;BME280;22383;51.114;13.666;2023-01-20T01:50:40;67065.56;;;-1.19;100.00
36354;BME280;22383;51.114;13.666;2023-01-20T01:53:09;67062.75;;;-1.22;100.00
36354;BME280;22383;51.114;13.666;2023-01-20T01:55:40;67059.59;;;-1.22;100.00
36354;BME280;22383;51.114;13.666;2023-01-20T01:58:16;67065.34;;;-1.22;100.00
36354;BME280;22383;51.114;13.666;2023-01-20T02:00:44;67062.19;;;-1.22;100.00
36354;BME280;22383;51.114;13.666;2023-01-20T02:03:17;67066.47;;;-1.21;100.00
36354;BME280;22383;51.114;13.666;2023-01-20T02:05:53;67061.81;;;-1.20;100.00
36354;BME280;22383;51.114;13.666;2023-01-20T02:08:24;67064.19;;;-1.23;100.00
36354;BME280;22383;51.114;13.666;2023-01-20T02:10:52;67063.28;;;-1.21;100.00
36354;BME280;22383;51.114;13.666;2023-01-20T02:13:19;67062.19;;;-1.22;100.00
36354;BME280;22383;51.114;13.666;2023-01-20T02:16:06;67062.75;;;-1.22;100.00
36354;BME280;22383;51.114;13.666;2023-01-20T02:18:45;67065.88;;;-1.21;100.00
36354;BME280;22383;51.114;13.666;2023-01-20T02:21:48;67060.13;;;-1.22;100.00
36354;BME280;22383;51.114;13.666;2023-01-20T02:35:58;67019.16;;;-1.21;100.00
36354;BME280;22383;51.114;13.666;2023-01-20T02:41:20;67068.16;;;-1.19;100.00
36354;BME280;22383;51.114;13.666;2023-01-20T02:47:02;67059.00;;;-1.23;100.00
36354;BME280;22383;51.114;13.666;2023-01-20T02:52:17;67063.66;;;-1.23;100.00
36354;BME280;22383;51.114;13.666;2023-01-20T02:54:48;67061.06;;;-1.23;100.00
36354;BME280;22383;51.114;13.666;2023-01-20T02:57:35;67057.91;;;-1.24;100.00
36354;BME280;22383;51.114;13.666;2023-01-20T03:00:15;67053.19;;;-1.30;100.00
36354;BME280;22383;51.114;13.666;2023-01-20T03:02:44;67053.19;;;-1.30;100.00
36354;BME280;22383;51.114;13.666;2023-01-20T03:05:20;67055.22;;;-1.31;100.00
36354;BME280;22383;51.114;13.666;2023-01-20T03:07:49;67048.13;;;-1.35;100.00
36354;BME280;22383;51.114;13.666;2023-01-20T03:10:21;67046.66;;;-1.34;100.00
36354;BME280;22383;51.114;13.666;2023-01-20T03:12:54;67045.91;;;-1.37;100.00
36354;BME280;22383;51.114;13.666;2023-01-20T03:15:35;67048.13;;;-1.35;100.00
36354;BME280;22383;51.114;13.666;2023-01-20T03:18:05;67043.09;;;-1.40;100.00
36354;BME280;22383;51.114;13.666;2023-01-20T03:20:32;67045.69;;;-1.40;100.00
36354;BME280;22383;51.114;13.666;2023-01-20T03:22:59;67043.44;;;-1.42;100.00
36354;BME280;22383;51.114;13.666;2023-01-20T03:25:26;67035.44;;;-1.44;100.00
36354;BME280;22383;51.114;13.666;2023-01-20T03:27:54;67033.97;;;-1.43;100.00
36354;BME280;22383;51.114;13.666;2023-01-20T03:30:21;67036.00;;;-1.44;100.00
36354;BME280;22383;51.114;13.666;2023-01-20T03:32:51;67042.53;;;-1.40;100.00
36354;BME280;22383;51.114;13.666;2023-01-20T03:35:19;67038.03;;;-1.44;100.00
36354;BME280;22383;51.114;13.666;2023-01-20T03:37:47;67041.75;;;-1.43;100.00
36354;BME280;22383;51.114;13.666;2023-01-20T03:40:14;67043.44;;;-1.42;100.00
36354;BME280;22383;51.114;13.666;2023-01-20T03:45:40;67035.44;;;-1.44;100.00
36354;BME280;22383;51.114;13.666;2023-01-20T03:48:37;67044.22;;;-1.39;100.00
36354;BME280;22383;51.114;13.666;2023-01-20T03:51:24;67043.44;;;-1.42;100.00
36354;BME280;22383;51.114;13.666;2023-01-20T03:53:54;67040.84;;;-1.42;100.00
36354;BME280;22383;51.114;13.666;2023-01-20T03:56:27;67042.53;;;-1.40;100.00
36354;BME280;22383;51.114;13.666;2023-01-20T03:58:58;67039.16;;;-1.43;100.00
36354;BME280;22383;51.114;13.666;2023-01-20T04:01:33;67032.66;;;-1.47;100.00
36354;BME280;22383;51.114;13.666;2023-01-20T04:04:03;67033.19;;;-1.46;100.00
36354;BME280;22383;51.114;13.666;2023-01-20T04:06:32;67032.66;;;-1.47;100.00
36354;BME280;22383;51.114;13.666;2023-01-20T04:09:07;67038.25;;;-1.42;100.00
36354;BME280;22383;51.114;13.666;2023-01-20T04:11:35;67038.03;;;-1.44;100.00
36354;BME280;22383;51.114;13.666;2023-01-20T04:14:02;67043.09;;;-1.40;100.00
36354;BME280;22383;51.114;13.666;2023-01-20T04:16:29;67040.63;;;-1.44;100.00
36354;BME280;22383;51.114;13.666;2023-01-20T04:18:59;67038.25;;;-1.42;100.00
36354;BME280;22383;51.114;13.666;2023-01-20T04:21:44;67041.97;;;-1.41;100.00
36354;BME280;22383;51.114;13.666;2023-01-20T04:24:31;67042.31;;;-1.43;100.00
36354;BME280;22383;51.114;13.666;2023-01-20T04:27:02;67035.78;;;-1.46;100.00
36354;BME280;22383;51.114;13.666;2023-01-20T04:29:29;67037.69;;;-1.42;100.00
36354;BME280;22383;51.114;13.666;2023-01-20T04:32:00;67041.19;;;-1.44;100.00
36354;BME280;22383;51.114;13.666;2023-01-20T04:34:28;67040.63;;;-1.44;100.00
36354;BME280;22383;51.114;13.666;2023-01-20T04:36:56;67040.63;;;-1.44;100.00
36354;BME280;22383;51.114;13.666;2023-01-20T04:39:23;67032.06;;;-1.47;100.00
36354;BME280;22383;51.114;13.666;2023-01-20T04:41:50;67030.97;;;-1.48;100.00
36354;BME280;22383;51.114;13.666;2023-01-20T04:44:17;67031.31;;;-1.50;100.00
36354;BME280;22383;51.114;13.666;2023-01-20T04:46:44;67037.47;;;-1.45;100.00
36354;BME280;22383;51.114;13.666;2023-01-20T04:49:13;67037.84;;;-1.47;100.00
36354;BME280;22383;51.114;13.666;2023-01-20T04:51:40;67041.19;;;-1.44;100.00
36354;BME280;22383;51.114;13.666;2023-01-20T04:54:08;67036.00;;;-1.44;100.00
36354;BME280;22383;51.114;13.666;2023-01-20T04:56:37;67045.69;;;-1.40;100.00
36354;BME280;22383;51.114;13.666;2023-01-20T04:59:04;67039.38;;;-1.41;100.00
36354;BME280;22383;51.114;13.666;2023-01-20T05:01:31;67038.81;;;-1.41;100.00
36354;BME280;22383;51.114;13.666;2023-01-20T05:03:59;67044.78;;;-1.38;100.00
36354;BME280;22383;51.114;13.666;2023-01-20T05:06:26;67041.63;;;-1.39;100.00
36354;BME280;22383;51.114;13.666;2023-01-20T05:08:53;67044.56;;;-1.41;100.00
36354;BME280;22383;51.114;13.666;2023-01-20T05:11:20;67046.47;;;-1.37;100.00
36354;BME280;22383;51.114;13.666;2023-01-20T05:13:47;67043.09;;;-1.40;100.00
36354;BME280;22383;51.114;13.666;2023-01-20T05:16:14;67036.22;;;-1.41;100.00
36354;BME280;22383;51.114;13.666;2023-01-20T05:18:47;67043.09;;;-1.40;100.00
36354;BME280;22383;51.114;13.666;2023-01-20T05:21:14;67043.31;;;-1.37;100.00
36354;BME280;22383;51.114;13.666;2023-01-20T05:23:41;67041.97;;;-1.41;100.00
36354;BME280;22383;51.114;13.666;2023-01-20T05:26:09;67036.00;;;-1.44;100.00
36354;BME280;22383;51.114;13.666;2023-01-20T05:28:37;67038.25;;;-1.42;100.00
36354;BME280;22383;51.114;13.666;2023-01-20T05:31:04;67041.97;;;-1.41;100.00
36354;BME280;22383;51.114;13.666;2023-01-20T05:33:31;67039.38;;;-1.41;100.00
36354;BME280;22383;51.114;13.666;2023-01-20T05:35:58;67047.56;;;-1.36;100.00
36354;BME280;22383;51.114;13.666;2023-01-20T05:38:29;67048.34;;;-1.33;100.00
36354;BME280;22383;51.114;13.666;2023-01-20T05:41:05;67052.28;;;-1.29;100.00
36354;BME280;22383;51.114;13.666;2023-01-20T05:43:33;67047.03;;;-1.36;100.00
36354;BME280;22383;51.114;13.666;2023-01-20T05:46:00;67046.66;;;-1.34;100.00
36354;BME280;22383;51.114;13.666;2023-01-20T05:48:28;67046.66;;;-1.34;100.00
36354;BME280;22383;51.114;13.666;2023-01-20T05:50:55;67047.22;;;-1.34;100.00
36354;BME280;22383;51.114;13.666;2023-01-20T05:53:22;67049.81;;;-1.34;100.00
36354;BME280;22383;51.114;13.666;2023-01-20T05:55:58;67048.72;;;-1.35;100.00
36354;BME280;22383;51.114;13.666;2023-01-20T05:58:25;67047.81;;;-1.33;100.00
36354;BME280;22383;51.114;13.666;2023-01-20T06:00:52;67054.09;;;-1.32;100.00
36354;BME280;22383;51.114;13.666;2023-01-20T06:03:20;67055.22;;;-1.31;100.00
36354;BME280;22383;51.114;13.666;2023-01-20T06:05:47;67056.00;;;-1.28;100.00
36354;BME280;22383;51.114;13.666;2023-01-20T06:08:15;67052.63;;;-1.31;100.00
36354;BME280;22383;51.114;13.666;2023-01-20T06:10:42;67047.03;;;-1.36;100.00
36354;BME280;22383;51.114;13.666;2023-01-20T06:13:09;67047.22;;;-1.34;100.00
36354;BME280;22383;51.114;13.666;2023-01-20T06:15:36;67050.94;;;-1.33;100.00
36354;BME280;22383;51.114;13.666;2023-01-20T06:18:03;67052.41;;;-1.34;100.00
36354;BME280;22383;51.114;13.666;2023-01-20T06:20:30;67044.44;;;-1.36;100.00
36354;BME280;22383;51.114;13.666;2023-01-20T06:22:58;67043.88;;;-1.37;100.00
36354;BME280;22383;51.114;13.666;2023-01-20T06:25:25;67038.25;;;-1.42;100.00
36354;BME280;22383;51.114;13.666;2023-01-20T06:27:52;67039.72;;;-1.43;100.00
36354;BME280;22383;51.114;13.666;2023-01-20T06:30:19;67047.03;;;-1.36;100.00
36354;BME280;22383;51.114;13.666;2023-01-20T06:32:46;67047.03;;;-1.36;100.00
36354;BME280;22383;51.114;13.666;2023-01-20T06:35:14;67048.50;;;-1.37;100.00
36354;BME280;22383;51.114;13.666;2023-01-20T06:37:42;67035.44;;;-1.44;100.00
36354;BME280;22383;51.114;13.666;2023-01-20T06:40:09;67042.88;;;-1.42;100.00
36354;BME280;22383;51.114;13.666;2023-01-20T06:42:37;67041.63;;;-1.39;100.00
36354;BME280;22383;51.114;13.666;2023-01-20T06:45:04;67041.75;;;-1.43;100.00
36354;BME280;22383;51.114;13.666;2023-01-20T06:47:34;67034.88;;;-1.45;100.00
36354;BME280;22383;51.114;13.666;2023-01-20T06:50:01;67037.00;;;-1.38;100.00
36354;BME280;22383;51.114;13.666;2023-01-20T06:52:28;67044.00;;;-1.41;100.00
36354;BME280;22383;51.114;13.666;2023-01-20T06:54:58;67038.81;;;-1.41;100.00
36354;BME280;22383;51.114;13.666;2023-01-20T06:57:25;67049.06;;;-1.37;100.00
36354;BME280;22383;51.114;13.666;2023-01-20T06:59:52;67043.66;;;-1.39;100.00
36354;BME280;22383;51.114;13.666;2023-01-20T07:02:20;67041.97;;;-1.41;100.00
36354;BME280;22383;51.114;13.666;2023-01-20T07:04:50;67039.72;;;-1.43;100.00
36354;BME280;22383;51.114;13.666;2023-01-20T07:07:17;67043.44;;;-1.42;100.00
36354;BME280;22383;51.114;13.666;2023-01-20T07:09:44;67040.84;;;-1.42;100.00
36354;BME280;22383;51.114;13.666;2023-01-20T07:12:12;66997.84;;;-1.41;100.00
36354;BME280;22383;51.114;13.666;2023-01-20T07:14:39;67044.22;;;-1.39;100.00
36354;BME280;22383;51.114;13.666;2023-01-20T07:17:10;67047.38;;;-1.38;100.00
36354;BME280;22383;51.114;13.666;2023-01-20T07:19:38;67042.19;;;-1.38;100.00
36354;BME280;22383;51.114;13.666;2023-01-20T07:22:05;67043.09;;;-1.40;100.00
36354;BME280;22383;51.114;13.666;2023-01-20T07:24:32;67039.94;;;-1.40;100.00
36354;BME280;22383;51.114;13.666;2023-01-20T07:26:59;67047.56;;;-1.36;100.00
36354;BME280;22383;51.114;13.666;2023-01-20T07:29:27;67043.31;;;-1.37;100.00
36354;BME280;22383;51.114;13.666;2023-01-20T07:31:54;67047.94;;;-1.38;100.00
36354;BME280;22383;51.114;13.666;2023-01-20T07:34:22;67046.13;;;-1.35;100.00
36354;BME280;22383;51.114;13.666;2023-01-20T07:36:52;67058.03;;;-1.28;100.00
36354;BME280;22383;51.114;13.666;2023-01-20T07:39:19;67054.88;;;-1.29;100.00
36354;BME280;22383;51.114;13.666;2023-01-20T07:41:47;67058.59;;;-1.28;100.00
36354;BME280;22383;51.114;13.666;2023-01-20T07:44:19;67052.63;;;-1.31;100.00
36354;BME280;22383;51.114;13.666;2023-01-20T07:46:46;67058.03;;;-1.28;100.00
36354;BME280;22383;51.114;13.666;2023-01-20T07:49:13;67057.47;;;-1.29;100.00
36354;BME280;22383;51.114;13.666;2023-01-20T07:51:40;67055.09;;;-1.26;100.00
36354;BME280;22383;51.114;13.666;2023-01-20T07:54:10;67055.44;;;-1.28;100.00
36354;BME280;22383;51.114;13.666;2023-01-20T07:56:37;67056.56;;;-1.27;100.00
36354;BME280;22383;51.114;13.666;2023-01-20T07:59:04;67052.28;;;-1.29;100.00
36354;BME280;22383;51.114;13.666;2023-01-20T08:01:32;67058.81;;;-1.25;100.00
36354;BME280;22383;51.114;13.666;2023-01-20T08:03:59;67055.09;;;-1.26;100.00
36354;BME280;22383;51.114;13.666;2023-01-20T08:06:27;67065.88;;;-1.21;100.00
36354;BME280;22383;51.114;13.666;2023-01-20T08:08:55;67062.19;;;-1.22;100.00
36354;BME280;22383;51.114;13.666;2023-01-20T08:11:25;67072.09;;;-1.16;100.00
36354;BME280;22383;51.114;13.666;2023-01-20T08:13:52;67071.16;;;-1.14;100.00
36354;BME280;22383;51.114;13.666;2023-01-20T08:16:20;67073.41;;;-1.12;100.00
36354;BME280;22383;51.114;13.666;2023-01-20T08:18:47;67070.59;;;-1.15;100.00
36354;BME280;22383;51.114;13.666;2023-01-20T08:21:20;67076.56;;;-1.11;100.00
36354;BME280;22383;51.114;13.666;2023-01-20T08:23:48;67074.88;;;-1.13;100.00
36354;BME280;22383;51.114;13.666;2023-01-20T08:26:16;67073.63;;;-1.09;100.00
36354;BME280;22383;51.114;13.666;2023-01-20T08:28:43;67080.50;;;-1.08;100.00
36354;BME280;22383;51.114;13.666;2023-01-20T08:31:15;67073.63;;;-1.09;100.00
36354;BME280;22383;51.114;13.666;2023-01-20T08:33:43;67078.81;;;-1.09;100.00
36354;BME280;22383;51.114;13.666;2023-01-20T08:36:14;67079.94;;;-1.08;100.00
36354;BME280;22383;51.114;13.666;2023-01-20T08:38:42;67078.31;;;-1.03;100.00
36354;BME280;22383;51.114;13.666;2023-01-20T08:41:22;67086.66;;;-1.02;100.00
36354;BME280;22383;51.114;13.666;2023-01-20T08:43:49;67091.16;;;-0.98;100.00
36354;BME280;22383;51.114;13.666;2023-01-20T08:46:17;67095.53;;;-0.89;100.00
36354;BME280;22383;51.114;13.666;2023-01-20T08:48:46;67091.38;;;-0.96;100.00
36354;BME280;22383;51.114;13.666;2023-01-20T08:51:17;67095.84;;;-0.91;100.00
36354;BME280;22383;51.114;13.666;2023-01-20T08:53:45;67089.13;;;-0.98;100.00
36354;BME280;22383;51.114;13.666;2023-01-20T08:56:13;67084.63;;;-1.02;100.00
36354;BME280;22383;51.114;13.666;2023-01-20T08:58:41;67087.22;;;-1.02;100.00
36354;BME280;22383;51.114;13.666;2023-01-20T09:01:12;67082.03;;;-1.02;100.00
36354;BME280;22383;51.114;13.666;2023-01-20T09:03:40;67080.13;;;-1.06;100.00
36354;BME280;22383;51.114;13.666;2023-01-20T09:06:25;67097.34;;;-0.92;100.00
36354;BME280;22383;51.114;13.666;2023-01-20T09:08:53;67091.72;;;-0.98;100.00
36354;BME280;22383;51.114;13.666;2023-01-20T09:11:21;67096.44;;;-0.91;100.00
36354;BME280;22383;51.114;13.666;2023-01-20T09:13:49;67095.66;;;-0.94;100.00
36354;BME280;22383;51.114;13.666;2023-01-20T09:16:17;67093.25;;;-0.91;100.00
36354;BME280;22383;51.114;13.666;2023-01-20T09:18:45;67092.50;;;-0.94;100.00
36354;BME280;22383;51.114;13.666;2023-01-20T09:21:13;67090.59;;;-0.99;100.00
36354;BME280;22383;51.114;13.666;2023-01-20T09:23:40;67091.38;;;-0.96;100.00
36354;BME280;22383;51.114;13.666;2023-01-20T09:26:09;67091.16;;;-0.98;100.00
36354;BME280;22383;51.114;13.666;2023-01-20T09:28:36;67088.22;;;-0.96;100.00
36354;BME280;22383;51.114;13.666;2023-01-20T09:31:06;67100.72;;;-0.89;100.00
36354;BME280;22383;51.114;13.666;2023-01-20T09:33:35;67102.59;;;-0.85;100.00
36354;BME280;22383;51.114;13.666;2023-01-20T09:36:06;67102.25;;;-0.83;100.00
36354;BME280;22383;51.114;13.666;2023-01-20T09:38:34;67111.94;;;-0.79;100.00
36354;BME280;22383;51.114;13.666;2023-01-20T09:41:31;67109.00;;;-0.77;100.00
36354;BME280;22383;51.114;13.666;2023-01-20T09:47:20;67110.81;;;-0.80;100.00
36354;BME280;22383;51.114;13.666;2023-01-20T09:50:16;67110.81;;;-0.80;100.00
36354;BME280;22383;51.114;13.666;2023-01-20T09:55:47;67123.53;;;-0.71;100.00
36354;BME280;22383;51.114;13.666;2023-01-20T10:01:17;67130.13;;;-0.60;100.00
36354;BME280;22383;51.114;13.666;2023-01-20T10:03:55;67129.00;;;-0.61;100.00
36354;BME280;22383;51.114;13.666;2023-01-20T10:06:46;67133.13;;;-0.55;100.00
36354;BME280;22383;51.114;13.666;2023-01-20T10:09:25;67133.69;;;-0.54;100.00
36354;BME280;22383;51.114;13.666;2023-01-20T10:12:18;67140.22;;;-0.51;100.00
36354;BME280;22383;51.114;13.666;2023-01-20T10:14:54;67130.88;;;-0.57;100.00
36354;BME280;22383;51.114;13.666;2023-01-20T10:17:29;67139.66;;;-0.51;100.00
36354;BME280;22383;51.114;13.666;2023-01-20T10:20:12;67123.38;;;-0.66;100.00
36354;BME280;22383;51.114;13.666;2023-01-20T10:23:10;67112.94;;;-0.73;100.00
36354;BME280;22383;51.114;13.666;2023-01-20T10:25:47;67119.47;;;-0.70;100.00
36354;BME280;22383;51.114;13.666;2023-01-20T10:28:26;67121.34;;;-0.66;100.00
36354;BME280;22383;51.114;13.666;2023-01-20T10:31:00;67114.75;;;-0.77;100.00
36354;BME280;22383;51.114;13.666;2023-01-20T10:33:56;67112.34;;;-0.74;100.00
36354;BME280;22383;51.114;13.666;2023-01-20T10:36:28;67116.84;;;-0.70;100.00
36354;BME280;22383;51.114;13.666;2023-01-20T10:39:14;67121.69;;;-0.68;100.00
36354;BME280;22383;51.114;13.666;2023-01-20T10:41:49;67127.66;;;-0.65;100.00
36354;BME280;22383;51.114;13.666;2023-01-20T10:44:18;67121.69;;;-0.68;100.00
36354;BME280;22383;51.114;13.666;2023-01-20T10:57:53;67109.56;;;-0.77;100.00
36354;BME280;22383;51.114;13.666;2023-01-20T11:00:26;67126.53;;;-0.66;100.00
36354;BME280;22383;51.114;13.666;2023-01-20T11:02:56;67130.13;;;-0.60;100.00
36354;BME280;22383;51.114;13.666;2023-01-20T11:05:28;67130.69;;;-0.60;100.00
36354;BME280;22383;51.114;13.666;2023-01-20T11:07:59;67131.44;;;-0.57;100.00
36354;BME280;22383;51.114;13.666;2023-01-20T11:10:31;67137.97;;;-0.53;100.00
36354;BME280;22383;51.114;13.666;2023-01-20T11:13:00;67133.13;;;-0.55;100.00
36354;BME280;22383;51.114;13.666;2023-01-20T11:15:34;67148.44;;;-0.46;100.00
36354;BME280;22383;51.114;13.666;2023-01-20T11:26:07;67146.06;;;-0.43;100.00
36354;BME280;22383;51.114;13.666;2023-01-20T11:28:47;67156.66;;;-0.41;100.00
36354;BME280;22383;51.114;13.666;2023-01-20T11:31:15;67147.31;;;-0.47;100.00
36354;BME280;22383;51.114;13.666;2023-01-20T11:33:53;67145.09;;;-0.49;100.00
36354;BME280;22383;51.114;13.666;2023-01-20T11:36:21;67139.09;;;-0.52;100.00
36354;BME280;22383;51.114;13.666;2023-01-20T11:38:54;67138.56;;;-0.52;100.00
36354;BME280;22383;51.114;13.666;2023-01-20T11:41:27;67146.41;;;-0.45;100.00
36354;BME280;22383;51.114;13.666;2023-01-20T11:43:59;67151.47;;;-0.41;100.00
36354;BME280;22383;51.114;13.666;2023-01-20T11:46:32;67152.38;;;-0.42;100.00
36354;BME280;22383;51.114;13.666;2023-01-20T11:49:20;67141.00;;;-0.48;100.00
36354;BME280;22383;51.114;13.666;2023-01-20T11:54:23;67130.69;;;-0.60;100.00
36354;BME280;22383;51.114;13.666;2023-01-20T11:56:55;67134.41;;;-0.59;100.00
36354;BME280;22383;51.114;13.666;2023-01-20T11:59:31;67123.59;;;-0.64;100.00
36354;BME280;22383;51.114;13.666;2023-01-20T12:02:21;67130.47;;;-0.62;100.00
36354;BME280;22383;51.114;13.666;2023-01-20T12:05:07;67129.91;;;-0.63;100.00
36354;BME280;22383;51.114;13.666;2023-01-20T12:07:36;67117.06;;;-0.67;100.00
36354;BME280;22383;51.114;13.666;2023-01-20T12:10:18;67121.13;;;-0.68;100.00
36354;BME280;22383;51.114;13.666;2023-01-20T12:15:31;67127.09;;;-0.65;100.00
36354;BME280;22383;51.114;13.666;2023-01-20T12:18:11;67134.03;;;-0.57;100.00
36354;BME280;22383;51.114;13.666;2023-01-20T12:20:45;67124.13;;;-0.63;100.00
36354;BME280;22383;51.114;13.666;2023-01-20T12:23:36;67129.91;;;-0.63;100.00
36354;BME280;22383;51.114;13.666;2023-01-20T12:26:17;67123.38;;;-0.66;100.00
36354;BME280;22383;51.114;13.666;2023-01-20T12:29:01;67129.56;;;-0.61;100.00
36354;BME280;22383;51.114;13.666;2023-01-20T12:31:31;67128.44;;;-0.62;100.00
36354;BME280;22383;51.114;13.666;2023-01-20T12:36:42;67129.69;;;-0.65;100.00
36354;BME280;22383;51.114;13.666;2023-01-20T12:39:55;67117.97;;;-0.69;100.00
36354;BME280;22383;51.114;13.666;2023-01-20T12:48:22;67127.50;;;-0.60;100.00
36354;BME280;22383;51.114;13.666;2023-01-20T12:51:22;67135.53;;;-0.58;100.00
36354;BME280;22383;51.114;13.666;2023-01-20T12:59:15;67149.91;;;-0.47;100.00
36354;BME280;22383;51.114;13.666;2023-01-20T13:07:34;67159.69;;;-0.35;100.00
36354;BME280;22383;51.114;13.666;2023-01-20T13:13:03;67163.28;;;-0.30;100.00
36354;BME280;22383;51.114;13.666;2023-01-20T13:15:40;67144.16;;;-0.47;100.00
36354;BME280;22383;51.114;13.666;2023-01-20T13:20:45;67133.50;;;-0.57;100.00
36354;BME280;22383;51.114;13.666;2023-01-20T13:23:15;67125.28;;;-0.62;100.00
36354;BME280;22383;51.114;13.666;2023-01-20T13:25:45;67125.41;;;-0.67;100.00
36354;BME280;22383;51.114;13.666;2023-01-20T13:28:31;67122.06;;;-0.70;100.00
36354;BME280;22383;51.114;13.666;2023-01-20T13:30:59;67117.97;;;-0.69;100.00
36354;BME280;22383;51.114;13.666;2023-01-20T13:33:39;67128.22;;;-0.64;100.00
36354;BME280;22383;51.114;13.666;2023-01-20T13:36:19;67121.13;;;-0.68;100.00
36354;BME280;22383;51.114;13.666;2023-01-20T13:38:49;67121.69;;;-0.68;100.00
36354;BME280;22383;51.114;13.666;2023-01-20T13:41:46;67120.00;;;-0.69;100.00
36354;BME280;22383;51.114;13.666;2023-01-20T13:47:00;67118.69;;;-0.73;100.00
36354;BME280;22383;51.114;13.666;2023-01-20T13:52:10;67125.97;;;-0.66;100.00
36354;BME280;22383;51.114;13.666;2023-01-20T13:54:41;67120.22;;;-0.67;100.00
36354;BME280;22383;51.114;13.666;2023-01-20T13:59:50;67107.31;;;-0.79;100.00
36354;BME280;22383;51.114;13.666;2023-01-20T14:02:22;67109.13;;;-0.82;100.00
36354;BME280;22383;51.114;13.666;2023-01-20T14:04:49;67106.31;;;-0.84;100.00
36354;BME280;22383;51.114;13.666;2023-01-20T14:07:24;67098.31;;;-0.87;100.00
36354;BME280;22383;51.114;13.666;2023-01-20T14:10:00;67110.47;;;-0.78;100.00
36354;BME280;22383;51.114;13.666;2023-01-20T14:12:27;67104.50;;;-0.81;100.00
36354;BME280;22383;51.114;13.666;2023-01-20T14:14:54;67100.13;;;-0.90;100.00
36354;BME280;22383;51.114;13.666;2023-01-20T14:17:23;67087.44;;;-0.99;100.00
36354;BME280;22383;51.114;13.666;2023-01-20T14:19:54;67088.34;;;-1.01;100.00
36354;BME280;22383;51.114;13.666;2023-01-20T14:22:29;67083.88;;;-1.05;100.00
36354;BME280;22383;51.114;13.666;2023-01-20T14:24:58;67086.09;;;-1.03;100.00
36354;BME280;22383;51.114;13.666;2023-01-20T14:27:32;67090.03;;;-0.99;100.00
36354;BME280;22383;51.114;13.666;2023-01-20T14:32:41;67098.13;;;-0.89;100.00
36354;BME280;22383;51.114;13.666;2023-01-20T14:35:34;67057.53;;;-0.84;100.00
36354;BME280;22383;51.114;13.666;2023-01-20T14:38:00;67097.19;;;-0.88;100.00